Time;durP1;ratioP1;P1;durP2;ratioP2;P2;SDS_P1;SDS_P2;PMS_P1;PMS_P2;Temp;Humidity;BMP_temperature;BMP_pressure;BME280_temperature;BME280_humidity;BME280_pressure;Samples;Min_cycle;Max_cycle;Signal;HPM_P1;HPM_P2
2023/04/10 00:00:55;;;;;;;6.32;4.47;;;;;;;12.56;54.26;102063.84;5117547;28;20074;-68
2023/04/10 00:03:23;;;;;;;6.68;4.43;;;;;;;12.55;54.59;102058.66;5120048;28;20115;-68
2023/04/10 00:05:53;;;;;;;8.07;4.60;;;;;;;12.54;54.23;102047.03;5107425;28;20115;-68
2023/04/10 00:08:21;;;;;;;6.15;4.80;;;;;;;12.54;54.76;102043.50;5115313;28;20044;-68
2023/04/10 00:10:49;;;;;;;5.80;4.50;;;;;;;12.53;54.58;102034.59;5119933;28;20047;-68
2023/04/10 00:13:17;;;;;;;6.22;4.85;;;;;;;12.49;54.61;102027.13;5115099;28;20123;-68
2023/04/10 00:15:45;;;;;;;7.18;4.80;;;;;;;12.44;54.25;102013.41;5116783;28;20497;-68
2023/04/10 00:18:14;;;;;;;6.80;4.43;;;;;;;12.51;54.42;102019.66;5117311;28;20078;-68
2023/04/10 00:20:42;;;;;;;6.95;4.95;;;;;;;12.50;54.38;102020.69;5120855;28;20093;-68
2023/04/10 00:23:10;;;;;;;11.20;4.80;;;;;;;12.49;54.16;102016.31;5111776;28;20147;-68
2023/04/10 00:25:38;;;;;;;7.43;5.10;;;;;;;12.48;54.16;102009.28;5116031;28;20032;-68
2023/04/10 00:28:05;;;;;;;6.15;4.10;;;;;;;12.46;54.25;102003.25;5116644;28;20118;-67
2023/04/10 00:30:33;;;;;;;6.25;4.60;;;;;;;12.45;54.54;102007.81;5119394;28;20047;-67
2023/04/10 00:33:01;;;;;;;7.68;4.60;;;;;;;12.45;54.46;102007.81;5121054;28;20053;-68
2023/04/10 00:35:30;;;;;;;6.22;4.20;;;;;;;12.36;54.61;101990.19;5113916;28;20311;-68
2023/04/10 00:37:58;;;;;;;7.57;4.85;;;;;;;12.43;54.63;101999.09;5120758;28;20051;-68
2023/04/10 00:40:26;;;;;;;6.78;4.65;;;;;;;12.43;54.51;102001.81;5116768;28;20097;-68
2023/04/10 00:42:54;;;;;;;7.05;4.70;;;;;;;12.40;54.28;101996.81;5120818;28;20090;-68
2023/04/10 00:45:21;;;;;;;9.23;4.72;;;;;;;12.39;54.44;101996.00;5112782;28;20075;-68
2023/04/10 00:47:49;;;;;;;7.68;4.60;;;;;;;12.38;54.25;101997.03;5120564;28;20082;-68
2023/04/10 00:50:17;;;;;;;5.60;4.03;;;;;;;12.36;54.42;101993.72;5117075;28;20505;-68
2023/04/10 00:52:47;;;;;;;7.18;4.88;;;;;;;12.35;54.41;101994.75;5120467;28;20067;-67
2023/04/10 00:55:15;;;;;;;6.78;4.68;;;;;;;12.33;54.61;101985.19;5116754;28;20040;-68
2023/04/10 00:57:45;;;;;;;7.22;4.68;;;;;;;12.32;54.60;101987.06;5116398;28;20288;-68
2023/04/10 01:00:14;;;;;;;8.27;4.25;;;;;;;12.32;54.63;101983.53;5118908;28;20169;-68
2023/04/10 01:02:42;;;;;;;7.70;4.28;;;;;;;12.31;54.34;101980.00;5106120;28;20085;-68
2023/04/10 01:05:12;;;;;;;7.35;4.70;;;;;;;12.29;54.59;101981.25;5110735;28;20054;-68
2023/04/10 01:07:54;;;;;;;6.35;4.22;;;;;;;12.28;54.17;101988.50;5116072;28;20103;-68
2023/04/10 01:10:29;;;;;;;6.45;4.70;;;;;;;12.26;54.38;101984.34;5119155;28;20075;-68
2023/04/10 01:13:06;;;;;;;6.63;4.40;;;;;;;12.23;54.23;101977.50;5116862;28;20067;-68
2023/04/10 01:15:43;;;;;;;5.55;4.13;;;;;;;12.23;54.53;101984.78;5116414;28;20059;-68
2023/04/10 01:18:19;;;;;;;5.85;4.10;;;;;;;12.20;54.38;101975.22;5117827;28;20482;-68
2023/04/10 01:20:47;;;;;;;9.43;4.27;;;;;;;12.19;54.21;101976.25;5117706;28;20395;-68
2023/04/10 01:23:49;;;;;;;6.75;4.65;;;;;;;12.18;54.62;101969.22;5114068;28;20059;-68
2023/04/10 01:26:32;;;;;;;6.75;4.30;;;;;;;12.18;54.65;101969.22;5115425;28;20047;-67
2023/04/10 01:29:06;;;;;;;6.22;4.45;;;;;;;12.16;54.49;101965.06;5107266;28;20107;-68
2023/04/10 01:31:39;;;;;;;7.03;4.13;;;;;;;12.15;54.42;101969.63;5116343;28;20090;-68
2023/04/10 01:34:09;;;;;;;7.10;4.55;;;;;;;12.15;54.54;101971.47;5120213;28;20101;-68
2023/04/10 01:36:43;;;;;;;7.03;4.85;;;;;;;12.13;54.59;101971.72;5111276;28;20044;-66
2023/04/10 01:39:12;;;;;;;5.85;3.95;;;;;;;12.10;54.31;101966.75;5120164;28;20074;-67
2023/04/10 01:41:43;;;;;;;5.97;4.20;;;;;;;12.10;54.40;101968.59;5118014;28;20078;-67
2023/04/10 01:44:15;;;;;;;5.32;3.95;;;;;;;12.10;54.38;101960.53;5117647;28;20488;-67
2023/04/10 01:46:44;;;;;;;6.25;4.30;;;;;;;12.07;54.33;101958.25;5119001;28;20285;-67
2023/04/10 01:49:14;;;;;;;5.63;4.10;;;;;;;12.05;54.55;101956.56;5115847;28;20048;-67
2023/04/10 01:51:42;;;;;;;5.57;4.03;;;;;;;12.05;54.50;101950.34;5115075;28;20063;-67
2023/04/10 01:54:10;;;;;;;8.02;4.40;;;;;;;12.04;54.27;101956.78;5121954;28;20073;-69
2023/04/10 01:56:38;;;;;;;6.72;4.57;;;;;;;12.00;54.34;101940.19;5113675;28;20126;-67
2023/04/10 01:59:06;;;;;;;6.22;4.20;;;;;;;12.03;54.36;101950.56;5122097;28;20272;-67
2023/04/10 02:01:35;;;;;;;4.95;3.72;;;;;;;12.01;54.44;101939.16;5122589;28;20511;-69
2023/04/10 02:04:03;;;;;;;6.22;4.30;;;;;;;12.00;54.50;101942.06;5120434;28;20066;-68
2023/04/10 02:06:41;;;;;;;6.97;4.70;;;;;;;12.00;54.22;101934.81;5115344;28;20043;-68
2023/04/10 02:09:21;;;;;;;8.05;4.50;;;;;;;12.00;54.33;101929.41;5121753;28;20131;-69
2023/04/10 02:11:55;;;;;;;6.45;4.40;;;;;;;11.99;54.12;101924.22;5117026;28;20052;-68
2023/04/10 02:14:27;;;;;;;6.97;4.38;;;;;;;11.98;54.20;101917.19;5109978;28;20048;-68
2023/04/10 02:16:57;;;;;;;6.25;4.25;;;;;;;11.97;54.14;101920.91;5117447;28;20427;-68
2023/04/10 02:19:26;;;;;;;6.22;4.22;;;;;;;11.95;54.28;101912.22;5118106;28;20055;-69
2023/04/10 02:21:55;;;;;;;6.88;4.70;;;;;;;11.94;54.35;101911.38;5123771;28;20043;-68
2023/04/10 02:24:23;;;;;;;6.25;4.70;;;;;;;11.92;54.14;101899.16;5122901;28;20087;-69
2023/04/10 02:26:53;;;;;;;6.05;4.57;;;;;;;11.92;54.25;101909.91;5121369;28;20060;-68
2023/04/10 02:29:20;;;;;;;6.35;4.60;;;;;;;11.90;54.21;101898.53;5119641;28;20103;-68
2023/04/10 02:31:50;;;;;;;8.60;4.63;;;;;;;11.82;54.38;101885.25;5119726;28;20075;-68
2023/04/10 02:34:19;;;;;;;6.10;4.45;;;;;;;11.88;54.35;101897.91;5120737;28;20254;-68
2023/04/10 02:36:47;;;;;;;6.75;4.75;;;;;;;11.80;54.03;101893.53;5118511;28;20063;-68
2023/04/10 02:39:15;;;;;;;5.82;4.35;;;;;;;11.77;53.99;101885.00;5121888;28;20043;-69
2023/04/10 02:41:42;;;;;;;7.72;4.80;;;;;;;11.83;54.45;101897.69;5123102;28;20105;-69
2023/04/10 02:44:10;;;;;;;6.25;5.03;;;;;;;11.83;54.32;101895.81;5119329;28;20123;-69
2023/04/10 02:46:38;;;;;;;8.05;4.57;;;;;;;11.82;54.22;101902.25;5122232;28;20050;-69
2023/04/10 02:49:06;;;;;;;6.45;4.28;;;;;;;11.80;54.43;101896.22;5119795;28;20047;-69
2023/04/10 02:51:36;;;;;;;5.65;4.18;;;;;;;11.77;54.51;101896.63;5115059;28;20036;-69
2023/04/10 02:54:04;;;;;;;5.63;4.25;;;;;;;11.78;54.36;101900.16;5119637;28;20086;-68
2023/04/10 02:56:34;;;;;;;5.65;4.00;;;;;;;11.77;54.54;101903.84;5120852;28;20047;-68
2023/04/10 02:59:02;;;;;;;7.45;4.65;;;;;;;11.71;54.29;101890.16;5115029;28;20348;-67
2023/04/10 03:01:30;;;;;;;6.10;4.65;;;;;;;11.74;54.53;101897.00;5120901;28;20051;-68
2023/04/10 03:03:58;;;;;;;7.32;4.80;;;;;;;11.72;54.45;101897.22;5122006;28;20366;-68
2023/04/10 03:06:27;;;;;;;6.43;4.32;;;;;;;11.71;54.29;101892.03;5120757;28;20316;-67
2023/04/10 03:08:56;;;;;;;5.63;4.05;;;;;;;11.70;54.32;101888.50;5114338;28;20063;-67
2023/04/10 03:11:23;;;;;;;6.43;4.38;;;;;;;11.68;54.23;101892.44;5115907;28;20044;-67
2023/04/10 03:13:51;;;;;;;5.90;4.20;;;;;;;11.68;54.55;101895.97;5116462;28;20084;-68
2023/04/10 03:16:19;;;;;;;8.48;4.93;;;;;;;11.67;54.39;101897.00;5121751;28;20142;-69
2023/04/10 03:18:47;;;;;;;6.32;4.25;;;;;;;11.67;54.45;101901.53;5120118;28;20061;-69
2023/04/10 03:21:15;;;;;;;6.20;4.50;;;;;;;11.65;54.51;101900.91;5119763;28;20064;-68
2023/04/10 03:23:43;;;;;;;6.32;4.55;;;;;;;11.63;54.50;101901.13;5115567;28;20067;-68
2023/04/10 03:26:12;;;;;;;6.22;4.38;;;;;;;11.62;54.29;101904.84;5119141;28;20058;-69
2023/04/10 03:28:40;;;;;;;5.85;4.30;;;;;;;11.62;54.60;101902.16;5115543;28;20276;-68
2023/04/10 03:31:08;;;;;;;6.35;4.35;;;;;;;11.51;54.64;101886.59;5114784;28;20054;-68
2023/04/10 03:33:36;;;;;;;6.18;4.53;;;;;;;11.59;53.92;101902.56;5121252;28;20043;-68
2023/04/10 03:36:04;;;;;;;5.85;4.35;;;;;;;11.57;54.46;101893.84;5120297;28;20527;-68
2023/04/10 03:38:32;;;;;;;7.88;5.00;;;;;;;11.57;54.30;101899.25;5121141;28;20047;-68
2023/04/10 03:41:00;;;;;;;7.07;4.97;;;;;;;11.56;54.57;101886.81;5122728;28;20062;-68
2023/04/10 03:43:29;;;;;;;6.05;4.38;;;;;;;11.55;54.47;101887.84;5116573;28;20075;-68
2023/04/10 03:45:57;;;;;;;6.72;5.18;;;;;;;11.54;54.39;101883.50;5120987;28;20062;-68
2023/04/10 03:48:26;;;;;;;6.25;4.72;;;;;;;11.52;54.45;101873.97;5121442;28;20047;-68
2023/04/10 03:50:54;;;;;;;6.72;4.75;;;;;;;11.46;54.50;101864.81;5121563;28;20051;-69
2023/04/10 03:53:22;;;;;;;6.05;4.47;;;;;;;11.50;54.49;101873.34;5121836;28;20044;-69
2023/04/10 03:55:51;;;;;;;8.15;4.72;;;;;;;11.50;54.38;101873.34;5107034;28;20072;-68
2023/04/10 03:58:19;;;;;;;6.90;4.47;;;;;;;11.50;54.45;101867.94;5106583;28;20051;-68
2023/04/10 04:00:48;;;;;;;6.95;4.82;;;;;;;11.47;54.34;101871.88;5119728;28;20071;-69
2023/04/10 04:03:16;;;;;;;7.35;4.60;;;;;;;11.47;54.44;101879.94;5115375;28;20052;-68
2023/04/10 04:05:44;;;;;;;6.85;4.68;;;;;;;11.46;54.47;101866.69;5114060;28;20078;-68
2023/04/10 04:08:12;;;;;;;7.03;4.85;;;;;;;11.46;54.39;101869.38;5118473;28;20039;-68
2023/04/10 04:10:40;;;;;;;6.60;4.85;;;;;;;11.37;54.33;101855.28;5115076;28;20583;-67
2023/04/10 04:13:08;;;;;;;5.80;4.35;;;;;;;11.46;54.38;101864.00;5117870;28;20055;-69
2023/04/10 04:15:36;;;;;;;6.43;4.70;;;;;;;11.45;54.22;101856.97;5118009;28;20055;-68
2023/04/10 04:18:05;;;;;;;7.57;5.00;;;;;;;11.44;54.35;101856.13;5119350;28;20043;-68
2023/04/10 04:20:32;;;;;;;7.93;5.25;;;;;;;11.43;54.16;101853.63;5116510;28;20520;-68
2023/04/10 04:23:00;;;;;;;8.02;4.68;;;;;;;11.43;54.29;101851.78;5118518;28;20290;-69
2023/04/10 04:25:28;;;;;;;7.07;4.85;;;;;;;11.40;54.15;101850.31;5119674;28;20451;-69
2023/04/10 04:27:56;;;;;;;6.93;4.82;;;;;;;11.40;54.28;101846.81;5118883;28;20085;-68
2023/04/10 04:30:24;;;;;;;7.53;4.88;;;;;;;11.38;54.36;101847.00;5117158;28;20058;-68
2023/04/10 04:32:51;;;;;;;7.57;5.32;;;;;;;11.34;54.21;101837.66;4763818;28;10000260;-68
2023/04/10 04:35:21;;;;;;;7.07;4.85;;;;;;;11.37;54.40;101839.97;5114248;28;20050;-67
2023/04/10 04:37:49;;;;;;;6.07;4.97;;;;;;;11.36;54.24;101842.84;5116739;28;20078;-67
2023/04/10 04:40:17;;;;;;;7.70;4.93;;;;;;;11.34;54.35;101837.66;5115222;28;20048;-69
2023/04/10 04:42:44;;;;;;;6.75;5.22;;;;;;;11.33;54.25;101832.50;5115104;28;20051;-68
2023/04/10 04:45:13;;;;;;;7.78;4.95;;;;;;;11.31;54.44;101838.06;5111469;28;20062;-68
2023/04/10 04:47:40;;;;;;;6.60;4.82;;;;;;;11.30;54.26;101838.28;5113683;28;20044;-68
2023/04/10 04:50:09;;;;;;;7.07;4.90;;;;;;;11.30;54.56;101840.97;5112402;28;20367;-67
2023/04/10 04:52:38;;;;;;;6.97;4.95;;;;;;;11.28;54.39;101837.66;5113954;28;20282;-68
2023/04/10 04:55:07;;;;;;;6.45;4.57;;;;;;;11.26;54.52;101829.78;5107890;28;20325;-67
2023/04/10 04:57:35;;;;;;;6.85;5.25;;;;;;;11.26;54.48;101835.16;5110247;28;20047;-67
2023/04/10 05:00:03;;;;;;;7.53;4.72;;;;;;;11.22;54.64;101830.38;5115542;28;20575;-67
2023/04/10 05:02:31;;;;;;;6.90;4.85;;;;;;;11.24;54.50;101833.72;5110253;28;20048;-67
2023/04/10 05:04:59;;;;;;;7.13;5.30;;;;;;;11.21;54.43;101818.78;5114240;28;20065;-68
2023/04/10 05:07:27;;;;;;;6.50;4.88;;;;;;;11.21;54.42;101832.25;5115896;28;20154;-68
2023/04/10 05:09:56;;;;;;;6.97;4.40;;;;;;;11.20;54.50;101825.22;5114843;28;20191;-68
2023/04/10 05:12:23;;;;;;;7.28;4.97;;;;;;;11.19;54.42;101820.84;5115103;28;20055;-68
2023/04/10 05:14:51;;;;;;;6.45;4.90;;;;;;;11.19;54.39;101810.09;5115353;28;20083;-69
2023/04/10 05:17:19;;;;;;;6.65;4.68;;;;;;;11.17;54.41;101801.41;5116169;28;20503;-69
2023/04/10 05:19:47;;;;;;;6.40;4.57;;;;;;;11.17;54.32;101806.78;5112102;28;20100;-68
2023/04/10 05:22:15;;;;;;;6.78;4.90;;;;;;;11.15;54.28;101806.16;5116988;28;20083;-69
2023/04/10 05:24:45;;;;;;;7.28;5.10;;;;;;;11.15;54.46;101805.31;5109664;28;20357;-68
2023/04/10 05:27:14;;;;;;;7.88;5.05;;;;;;;11.14;54.23;101800.97;5118066;28;20159;-68
2023/04/10 05:29:42;;;;;;;6.72;4.80;;;;;;;11.13;54.22;101810.06;5118830;28;20082;-69
2023/04/10 05:32:10;;;;;;;9.00;5.20;;;;;;;11.12;54.35;101805.72;5121147;28;20130;-68
2023/04/10 05:34:37;;;;;;;6.85;4.95;;;;;;;11.11;54.58;101804.91;5120025;28;20078;-68
2023/04/10 05:37:05;;;;;;;7.15;4.93;;;;;;;11.08;54.40;101808.81;5119958;28;20061;-68
2023/04/10 05:39:33;;;;;;;6.95;4.75;;;;;;;11.09;54.36;101798.88;5120976;28;20095;-68
2023/04/10 05:42:01;;;;;;;6.30;4.15;;;;;;;11.08;54.46;101805.28;5116153;28;20097;-68
2023/04/10 05:44:31;;;;;;;6.05;4.38;;;;;;;11.06;54.47;101813.56;5119688;28;20043;-68
2023/04/10 05:46:58;;;;;;;7.80;4.47;;;;;;;11.06;54.33;101810.06;5116202;28;20127;-68
2023/04/10 05:49:26;;;;;;;6.95;5.07;;;;;;;11.05;54.56;101809.22;5117477;28;20107;-68
2023/04/10 05:51:54;;;;;;;6.85;4.90;;;;;;;11.04;54.46;101809.41;5116254;28;20468;-68
2023/04/10 05:54:22;;;;;;;9.32;5.43;;;;;;;11.05;54.33;101808.38;5115441;28;20067;-69
2023/04/10 05:56:49;;;;;;;5.93;4.43;;;;;;;11.06;54.35;101810.06;5115621;28;20090;-68
2023/04/10 05:59:17;;;;;;;6.57;4.93;;;;;;;11.05;54.40;101816.47;5117785;28;20119;-69
2023/04/10 06:01:46;;;;;;;6.32;4.85;;;;;;;11.04;54.36;101818.31;5119219;28;20134;-69
2023/04/10 06:04:14;;;;;;;6.75;4.97;;;;;;;11.05;54.46;101819.16;5118378;28;20083;-69
2023/04/10 06:06:42;;;;;;;6.70;4.32;;;;;;;11.05;54.43;101811.91;5114317;28;20051;-68
2023/04/10 06:09:10;;;;;;;6.40;4.25;;;;;;;11.06;54.49;101820.81;5116962;28;20086;-68
2023/04/10 06:11:40;;;;;;;6.38;4.50;;;;;;;11.05;54.39;101819.97;5119765;28;20052;-67
2023/04/10 06:14:08;;;;;;;6.72;4.97;;;;;;;11.05;54.38;101822.66;5109925;28;20074;-68
2023/04/10 06:16:35;;;;;;;6.43;4.88;;;;;;;11.02;54.47;101806.94;5117547;28;20058;-68
2023/04/10 06:19:06;;;;;;;7.13;4.32;;;;;;;11.05;54.47;101811.91;5118257;28;20050;-68
2023/04/10 06:21:34;;;;;;;6.45;4.38;;;;;;;11.06;54.39;101818.13;5119372;28;20051;-67
2023/04/10 06:24:02;;;;;;;8.10;4.40;;;;;;;11.05;54.55;101813.78;5119366;28;20057;-67
2023/04/10 06:26:30;;;;;;;6.25;4.72;;;;;;;11.04;54.55;101809.41;5112314;28;20261;-67
2023/04/10 06:28:57;;;;;;;6.53;4.43;;;;;;;11.05;54.62;101803.84;5116347;28;20057;-67
2023/04/10 06:31:26;;;;;;;6.90;4.93;;;;;;;11.06;54.60;101797.44;5117944;28;20065;-67
2023/04/10 06:33:54;;;;;;;5.70;4.43;;;;;;;11.06;54.44;101794.75;5117592;28;20043;-67
2023/04/10 06:36:23;;;;;;;9.02;4.40;;;;;;;11.06;54.69;101794.75;5117761;28;20103;-66
2023/04/10 06:38:51;;;;;;;7.05;4.88;;;;;;;11.07;54.63;101782.94;5111970;28;20115;-68
2023/04/10 06:41:19;;;;;;;6.10;4.30;;;;;;;11.08;54.61;101781.09;5118783;28;20047;-66
2023/04/10 06:43:47;;;;;;;4.75;3.72;;;;;;;10.98;54.68;101765.31;5119648;28;20185;-68
2023/04/10 06:46:16;;;;;;;7.93;4.45;;;;;;;11.08;54.47;101775.69;5114893;28;20534;-67
2023/04/10 06:48:43;;;;;;;6.00;4.35;;;;;;;11.08;54.51;101773.00;5119440;28;20043;-67
2023/04/10 06:51:11;;;;;;;6.63;4.38;;;;;;;11.08;54.64;101771.16;5114422;28;20063;-66
2023/04/10 06:53:40;;;;;;;5.78;4.38;;;;;;;11.07;54.66;101764.13;5119869;28;20070;-66
2023/04/10 06:56:09;;;;;;;6.45;4.47;;;;;;;11.07;54.40;101763.28;5115277;28;20062;-67
2023/04/10 06:58:37;;;;;;;5.68;4.10;;;;;;;11.07;54.59;101750.66;5114276;28;20043;-67
2023/04/10 07:01:05;;;;;;;6.30;4.47;;;;;;;11.06;54.75;101738.25;5115417;28;20051;-67
2023/04/10 07:03:33;;;;;;;7.35;4.97;;;;;;;11.09;54.51;101740.53;5116758;28;20560;-66
2023/04/10 07:06:02;;;;;;;5.72;3.72;;;;;;;11.09;54.78;101740.53;5114916;28;20044;-66
2023/04/10 07:08:30;;;;;;;7.28;3.85;;;;;;;11.10;54.90;101738.66;5115767;28;20047;-67
2023/04/10 07:10:59;;;;;;;6.07;4.30;;;;;;;11.13;54.74;101735.56;5116251;28;20048;-68
2023/04/10 07:13:26;;;;;;;6.53;4.20;;;;;;;11.10;54.57;101725.22;5117778;28;20498;-67
2023/04/10 07:15:54;;;;;;;7.40;4.57;;;;;;;11.14;54.49;101731.84;5113362;28;20066;-67
2023/04/10 07:18:22;;;;;;;6.57;4.72;;;;;;;11.14;54.61;101723.78;5116147;28;20120;-67
2023/04/10 07:20:51;;;;;;;6.07;4.07;;;;;;;11.15;54.83;101722.75;5116333;28;20047;-68
2023/04/10 07:23:19;;;;;;;5.75;4.28;;;;;;;11.18;54.49;101716.13;5117017;28;20513;-67
2023/04/10 07:25:47;;;;;;;6.18;4.38;;;;;;;11.17;54.53;101709.91;5118909;28;20317;-67
2023/04/10 07:28:16;;;;;;;5.00;3.65;;;;;;;11.18;54.79;101711.56;5115112;28;20043;-67
2023/04/10 07:30:44;;;;;;;6.50;4.57;;;;;;;11.23;55.23;101703.72;5115661;28;20043;-67
2023/04/10 07:33:11;;;;;;;12.57;4.72;;;;;;;11.24;54.62;101701.84;5114612;28;20071;-67
2023/04/10 07:35:39;;;;;;;9.35;4.00;;;;;;;11.28;54.78;101697.72;5118241;28;20058;-67
2023/04/10 07:38:07;;;;;;;9.05;4.93;;;;;;;11.27;55.01;101696.06;5115655;28;20055;-68
2023/04/10 07:40:35;;;;;;;6.93;4.05;;;;;;;11.30;54.69;101698.34;5116007;28;20127;-67
2023/04/10 07:43:03;;;;;;;6.97;4.45;;;;;;;11.28;54.79;101692.34;5114889;28;20040;-67
2023/04/10 07:45:32;;;;;;;6.55;4.43;;;;;;;11.27;54.93;101688.81;5111172;28;20524;-66
2023/04/10 07:48:01;;;;;;;5.63;3.83;;;;;;;11.29;55.37;101685.91;5116477;28;20059;-68
2023/04/10 07:50:30;;;;;;;5.88;4.20;;;;;;;11.31;55.31;101676.59;5117235;28;20051;-67
2023/04/10 07:53:02;;;;;;;6.50;4.47;;;;;;;11.31;55.15;101679.31;5106837;28;20067;-67
2023/04/10 07:55:30;;;;;;;6.88;3.92;;;;;;;11.31;55.13;101665.00;5116572;28;20112;-68
2023/04/10 07:57:58;;;;;;;7.90;3.70;;;;;;;11.32;55.14;101661.28;5113985;28;20531;-69
2023/04/10 08:00:25;;;;;;;7.63;4.68;;;;;;;11.29;54.72;101656.31;5108880;28;20292;-67
2023/04/10 08:02:54;;;;;;;5.90;4.45;;;;;;;11.34;54.74;101651.16;5118976;28;20075;-70
2023/04/10 08:05:22;;;;;;;6.53;3.97;;;;;;;11.32;54.63;101643.28;5114830;28;20076;-68
2023/04/10 08:07:50;;;;;;;6.13;4.45;;;;;;;11.33;54.74;101647.63;5114458;28;20054;-68
2023/04/10 08:10:19;;;;;;;7.93;4.28;;;;;;;11.24;54.66;101627.34;5115093;28;20086;-68
2023/04/10 08:12:46;;;;;;;7.45;4.28;;;;;;;11.33;54.83;101627.97;5114466;28;20206;-68
2023/04/10 08:15:15;;;;;;;6.97;4.90;;;;;;;11.33;54.86;101627.97;5116526;28;20043;-68
2023/04/10 08:17:42;;;;;;;6.78;4.25;;;;;;;11.34;54.94;101629.63;5112163;28;20427;-69
2023/04/10 08:20:13;;;;;;;6.63;4.15;;;;;;;11.35;54.97;101631.28;5113527;28;20047;-69
2023/04/10 08:22:40;;;;;;;6.38;4.35;;;;;;;11.28;55.00;101619.69;5113485;28;20048;-71
2023/04/10 08:25:09;;;;;;;6.18;3.95;;;;;;;11.33;55.29;101627.97;5111258;28;20055;-68
2023/04/10 08:27:40;;;;;;;7.22;4.32;;;;;;;11.38;55.49;101628.16;5112447;28;20058;-70
2023/04/10 08:30:09;;;;;;;6.93;3.92;;;;;;;11.40;55.25;101632.31;5111160;28;20044;-68
2023/04/10 08:32:38;;;;;;;5.60;4.25;;;;;;;11.40;55.24;101618.84;5117330;28;20611;-70
2023/04/10 08:35:06;;;;;;;5.97;3.85;;;;;;;11.48;55.41;101625.06;5113004;28;20071;-70
2023/04/10 08:37:35;;;;;;;5.82;4.22;;;;;;;11.50;55.79;101626.50;5109012;28;20340;-66
2023/04/10 08:40:04;;;;;;;5.75;3.72;;;;;;;11.51;55.80;101622.78;5105844;28;20071;-68
2023/04/10 08:42:31;;;;;;;5.05;3.63;;;;;;;11.55;55.33;101615.09;5114279;28;20776;-67
2023/04/10 08:45:01;;;;;;;6.13;3.70;;;;;;;11.55;55.41;101617.81;5117259;28;20040;-69
2023/04/10 08:47:33;;;;;;;6.60;3.97;;;;;;;11.59;55.53;101616.34;5116113;28;20083;-70
2023/04/10 08:50:05;;;;;;;6.28;3.67;;;;;;;11.73;55.61;101605.34;5118590;28;20047;-69
2023/04/10 08:52:38;;;;;;;6.47;3.78;;;;;;;12.02;54.92;101614.00;5118777;28;20044;-69
2023/04/10 08:55:08;;;;;;;5.93;4.22;;;;;;;12.30;54.46;101610.94;5116424;28;20427;-69
2023/04/10 08:57:37;;;;;;;6.70;3.78;;;;;;;12.51;53.78;101612.50;5117830;28;20050;-70
2023/04/10 09:00:10;;;;;;;6.68;3.70;;;;;;;12.68;53.07;101605.56;5119355;28;20043;-69
2023/04/10 09:02:42;;;;;;;7.72;4.18;;;;;;;12.89;52.93;101607.91;5118179;28;20066;-69
2023/04/10 09:05:12;;;;;;;5.93;3.72;;;;;;;13.06;51.98;101613.59;5117221;28;20052;-69
2023/04/10 09:07:41;;;;;;;4.65;3.45;;;;;;;13.26;51.88;101610.75;5118060;28;20051;-69
2023/04/10 09:10:10;;;;;;;5.20;3.67;;;;;;;13.41;51.55;101599.63;5114926;28;20136;-68
2023/04/10 09:12:45;;;;;;;6.55;3.72;;;;;;;13.57;51.28;101605.28;5114438;28;20051;-69
2023/04/10 09:15:14;;;;;;;7.33;3.40;;;;;;;13.74;51.34;101599.28;5113274;28;20055;-68
2023/04/10 09:17:55;;;;;;;4.75;3.08;;;;;;;13.85;50.82;101595.84;5120387;28;20632;-69
2023/04/10 09:20:25;;;;;;;6.88;3.97;;;;;;;13.89;50.81;101597.84;5112264;28;20039;-68
2023/04/10 09:22:54;;;;;;;5.97;3.72;;;;;;;13.83;50.87;101600.66;5114390;28;20107;-69
2023/04/10 09:25:31;;;;;;;5.93;3.60;;;;;;;13.64;51.42;101587.13;5113476;28;20063;-67
2023/04/10 09:28:03;;;;;;;5.68;4.30;;;;;;;13.46;52.35;101587.09;5113461;28;20058;-67
2023/04/10 09:30:36;;;;;;;5.32;3.05;;;;;;;13.31;53.04;101586.63;5104755;28;20540;-68
2023/04/10 09:33:20;;;;;;;5.78;4.13;;;;;;;13.17;52.99;101590.50;5110658;28;20067;-66
2023/04/10 09:35:48;;;;;;;5.65;3.63;;;;;;;13.03;53.91;101576.25;5110751;28;20135;-67
2023/04/10 09:38:18;;;;;;;5.70;2.85;;;;;;;13.00;54.78;101571.28;5110924;28;20090;-67
2023/04/10 09:40:47;;;;;;;5.80;3.63;;;;;;;12.94;54.61;101562.19;5116383;28;20043;-69
2023/04/10 09:43:19;;;;;;;5.43;3.75;;;;;;;12.97;54.19;101555.53;5114493;28;20277;-67
2023/04/10 09:45:49;;;;;;;4.70;3.38;;;;;;;12.92;54.30;101545.41;5113131;28;20086;-71
2023/04/10 09:48:17;;;;;;;5.68;3.40;;;;;;;12.86;55.62;101531.97;5115208;28;20043;-68
2023/04/10 09:50:44;;;;;;;6.20;3.72;;;;;;;12.83;55.45;101527.03;5115904;28;20050;-70
2023/04/10 09:53:14;;;;;;;7.57;3.85;;;;;;;12.84;56.27;101528.66;5114184;28;20051;-65
2023/04/10 09:55:44;;;;;;;10.32;3.90;;;;;;;12.84;55.25;101524.09;5110455;28;20071;-66
2023/04/10 09:58:12;;;;;;;5.13;3.50;;;;;;;12.77;54.97;101511.72;5114344;28;20043;-66
2023/04/10 10:00:42;;;;;;;7.30;3.65;;;;;;;13.00;58.69;101528.94;5108764;28;20376;-66
2023/04/10 10:03:11;;;;;;;7.68;3.95;;;;;;;12.97;56.27;101531.25;5112297;28;20078;-67
2023/04/10 10:05:41;;;;;;;5.88;3.60;;;;;;;12.95;56.11;101530.66;5102916;28;20058;-66
2023/04/10 10:08:11;;;;;;;7.85;4.00;;;;;;;12.90;55.97;101530.50;5112998;28;20388;-66
2023/04/10 10:10:45;;;;;;;9.68;3.58;;;;;;;12.97;57.14;101506.97;5106848;28;20052;-66
2023/04/10 10:13:19;;;;;;;9.05;3.92;;;;;;;12.97;56.37;101520.47;5098550;28;20093;-67
2023/04/10 10:15:54;;;;;;;4.85;3.30;;;;;;;13.13;56.23;101513.69;5107078;28;20146;-67
2023/04/10 10:18:30;;;;;;;8.25;3.40;;;;;;;13.44;54.84;101502.78;5105925;28;20048;-68
2023/04/10 10:20:59;;;;;;;7.60;3.53;;;;;;;13.65;55.11;101498.81;5089764;28;20076;-67
2023/04/10 10:23:27;;;;;;;4.45;2.97;;;;;;;13.82;53.44;101488.22;5094769;28;20107;-66
2023/04/10 10:25:58;;;;;;;7.32;3.50;;;;;;;13.93;52.93;101490.13;5092985;28;20109;-66
2023/04/10 10:28:32;;;;;;;8.65;3.63;;;;;;;14.16;54.77;101492.09;5082820;28;20443;-66
2023/04/10 10:31:01;;;;;;;6.82;3.45;;;;;;;14.50;52.35;101479.75;5087535;28;20059;-66
2023/04/10 10:33:30;;;;;;;7.75;3.90;;;;;;;14.71;51.37;101481.09;5091204;28;20079;-66
2023/04/10 10:36:00;;;;;;;8.40;4.28;;;;;;;14.89;52.16;101470.97;5087135;28;20717;-66
2023/04/10 10:38:28;;;;;;;6.68;3.60;;;;;;;14.99;50.88;101459.56;5087717;28;20120;-67
2023/04/10 10:41:06;;;;;;;8.55;3.63;;;;;;;14.92;51.59;101456.97;5088308;28;20044;-67
2023/04/10 10:43:50;;;;;;;6.05;3.30;;;;;;;14.73;51.29;101465.44;5080874;28;20048;-66
2023/04/10 10:46:25;;;;;;;9.13;4.43;;;;;;;14.41;52.26;101454.91;5084126;28;20454;-67
2023/04/10 10:48:56;;;;;;;6.78;3.13;;;;;;;14.30;54.63;101458.41;5092817;28;20066;-66
2023/04/10 10:51:24;;;;;;;6.88;3.20;;;;;;;14.71;52.48;101456.75;5095946;28;20079;-67
2023/04/10 10:53:52;;;;;;;4.40;2.83;;;;;;;14.34;53.39;101457.72;5088810;28;20076;-65
2023/04/10 10:56:36;;;;;;;4.13;3.05;;;;;;;14.09;53.83;101438.13;5091182;28;20066;-65
2023/04/10 10:59:05;;;;;;;4.93;2.92;;;;;;;13.94;54.40;101426.91;5093657;28;20056;-66
2023/04/10 11:01:33;;;;;;;4.28;2.88;;;;;;;13.84;54.53;101432.06;5090936;28;20070;-65
2023/04/10 11:04:00;;;;;;;3.97;2.78;;;;;;;13.78;54.51;101412.19;5096781;28;20048;-67
2023/04/10 11:06:51;;;;;;;4.32;2.95;;;;;;;13.73;54.70;101420.16;5101881;28;20113;-66
2023/04/10 11:09:48;;;;;;;6.85;3.10;;;;;;;13.71;55.05;101416.88;5095885;28;20109;-67
2023/04/10 11:12:16;;;;;;;4.45;2.65;;;;;;;13.72;55.12;101415.81;5101550;28;20066;-65
2023/04/10 11:14:57;;;;;;;5.80;3.15;;;;;;;13.72;55.63;101405.00;5101605;28;20111;-68
2023/04/10 11:17:47;;;;;;;5.13;3.00;;;;;;;13.91;54.98;101398.47;5102565;28;20052;-68
2023/04/10 11:20:16;;;;;;;9.07;3.60;;;;;;;13.84;55.09;101410.47;5116941;28;20435;-66
2023/04/10 11:23:09;;;;;;;4.65;3.15;;;;;;;14.25;56.34;101410.44;5121246;28;20059;-66
2023/04/10 11:25:48;;;;;;;5.13;2.83;;;;;;;14.15;54.46;101398.53;5121722;28;20054;-66
2023/04/10 11:28:38;;;;;;;6.40;3.15;;;;;;;14.24;55.05;101392.56;5114329;28;20044;-66
2023/04/10 11:31:19;;;;;;;10.27;3.17;;;;;;;14.64;55.82;101381.91;5115591;28;20051;-66
2023/04/10 11:33:48;;;;;;;7.15;3.00;;;;;;;14.40;55.87;101374.00;5122334;28;20491;-66
2023/04/10 11:36:17;;;;;;;5.93;3.15;;;;;;;14.21;54.97;101371.41;5112766;28;20043;-67